الصفحة الرئيسية
METAR-TAF:

METAR-TAF

مطار :

مطار جربة جرجيس الدولي

جربة, تونس

دائرة عرض: 33-52N, خط طول: 010-46E, ارتفاع: 3 متر

مراقبة الطقس الحالي

تاريخ ووقت الإصدار 37 دقيقة قبل الساعة 23:30UTC
ريح 10 عقدة من الشرق
درجة الحرارة 16°درجة مئوية
الرطوبة 77%
ضغط 1013 hPa
الرؤية: 8000 متر

METAR: DTTJ 282330Z 09010KT 8000 NSC 16/12 Q1013 NOSIG

زمن: 01:07 (00:07 UTC)

توقعات

تاريخ ووقت الإصدار 1ساعة و 7 دقيقة قبل الساعة 23:00UTC
التوقعات صالحة من29 الساعة 00 UTC إلى 29 الساعة 24 UTC
ريح 15 عقدة من الشرق
الرؤية 10 كم أو أكثر
الغيوم لا تقل 1500 م ولا وجود لمزنة ركامية السحاب الأسود
نظرية الاحتمالات 30% :
مؤقت
من 29 الساعة 16 UTC إلى 29 الساعة 18 UTC
الرؤية: 4000 متر
غيوم قليلة على ارتفاع 2600 قدم, مزنة ركامية.
عاصفة رعدية, مطر خفيف

TAF: DTTJ 282300Z 2900/2924 09015KT CAVOK PROB30 TEMPO 2916/2918 4000 -TSRA FEW026CB

أرصاد الطقس والتوقعات من أكثر من 4000 مطار (تقارير الطقس للمطار METAR والتنبؤ بالطقس بالمطارTAF).

المحطات المتاحة هي النقط الصفراء والحمراء على الخريطة.

حرك المؤشر فوق النقطة لمعرفة اسم المحطة.

ثم انقر لمعرفة أرصاد وتوقعات الطقس.

لتغيير الخارطة: اضغط على الأزرار الخضراء مع رمز الصليب الأسود للتكبير. على الزر الأخضر مع شرطة للتصغير، أو على الأسهم الخضراء للخرائط المجاورة.


METAR-TAF: